Peterborough Airport
CYPQ : now visible

Airfield :











YOU CAN JOIN US ON...

 
LOGIN :

Register | Disclaimer

   EN    FR    IT 

 









Legend :    VFR   Marginal VFR   IFR   Intensive IFR   Very Intensive IFR
Visi :
Ceiling :
>= 8 km
>= 3000ft
5 to 8 km
1000 to 3000 ft
1500m to 5 km
500 to 1000 ft
800 to 1500m
200 to 500 ft
< 800m
< 200 ft
Symbols :   Thunderstorms  Fog  Heavy snow  Heavy precipitations  Wind > 20 kt






- Airport Elevation : 628 ft
- IATA code : YPQ


CYPQ - Peterborough

CURRENT METAR :
  • 241105Z AUTO 32013G18KT 9SM SCT019 03/01 A3004 RMK SLP177

EXPIRED METARs :
  • 241009Z AUTO 30011KT 9SM BKN020 04/02 A3000 RMK SLP164
  • 240900Z AUTO 31011G19KT 9SM FEW020 BKN100 05/02 A2995 RMK SLP144
  • 240843Z AUTO 29012G17KT 9SM SCT020 BKN100 05/03 A2994 RMK SLP141
  • 240834Z AUTO 31012G19KT 9SM BKN020 BKN100 BKN160 06/04 A2993 RMK SLP138
  • 240823Z AUTO 30011G19KT 9SM SCT016 SCT080 BKN100 BKN160 06/04 A2993 RMK SLP138
  • 240822Z AUTO 30010G22KT 9SM -RA SCT016 SCT080 BKN100 BKN160 06/04 A2993 RMK SLP138

TAF TAF CYPQ
Valid from the 24 at 10:00 until the 24 at 22:00 UTC


240938Z 2410/2422 31010G20KT P6SM SCT020 BKN100
TEMPO 2410/2414 BKN020
FM241500 34010KT P6SM BKN030 RMK FCST BASED ON AUTO OBS. NXT FCST BY 241400Z
CZYZ FIR / North America



MET'MAP, your aeronautical weather chart ! - Copyright ORBIFLY December 2007 - Disclaimer

ORBIFLY MET'MAP TEAM :

Programming & Development : Alexandra Zaïnal
Concept & original design : Baudouin d'Aumeries
Assistance for programming : Marc-Olivier Méhu
Technical & hardware support : Manuel Goepfert

Contact : metmap@orbifly.com




SOURCES & CREDITS :

   NOAA       Earth
Advisory